createdAt,value
2019-05-02T00:02:32.914Z,11.70
2019-05-02T00:05:08.581Z,12.17
2019-05-02T00:07:42.026Z,13.93
2019-05-02T00:10:15.175Z,16.03
2019-05-02T00:12:47.242Z,18.70
2019-05-02T00:15:19.245Z,21.10
2019-05-02T00:17:50.547Z,23.33
2019-05-02T00:20:25.934Z,22.83
2019-05-02T00:22:54.801Z,18.27
2019-05-02T00:25:26.234Z,15.17
2019-05-02T00:27:57.563Z,14.40
2019-05-02T00:30:30.015Z,14.20
2019-05-02T00:33:02.048Z,18.30
2019-05-02T00:35:33.283Z,14.93
2019-05-02T00:38:05.487Z,17.80
2019-05-02T00:40:36.846Z,15.43
2019-05-02T00:43:08.099Z,14.43
2019-05-02T00:45:39.751Z,13.80
2019-05-02T00:48:32.551Z,13.57
2019-05-02T00:51:04.180Z,14.73
2019-05-02T00:53:35.729Z,14.60
2019-05-02T00:56:09.098Z,14.97
2019-05-02T00:58:40.396Z,13.43
2019-05-02T01:01:31.378Z,14.43
2019-05-02T01:04:08.616Z,15.30
2019-05-02T01:06:39.858Z,14.37
2019-05-02T01:09:12.976Z,15.20
2019-05-02T01:11:44.390Z,12.90
2019-05-02T01:14:15.975Z,13.47
2019-05-02T01:16:49.516Z,17.10
2019-05-02T01:19:20.188Z,21.00
2019-05-02T01:21:52.063Z,19.23
2019-05-02T01:24:23.421Z,17.83
2019-05-02T01:27:04.529Z,14.70
2019-05-02T01:30:01.694Z,13.20
2019-05-02T01:32:44.376Z,11.80
2019-05-02T01:35:27.050Z,12.20
2019-05-02T01:38:16.027Z,13.57
2019-05-02T01:40:53.208Z,12.63
2019-05-02T01:43:26.341Z,13.00
2019-05-02T01:45:57.637Z,13.50
2019-05-02T01:48:29.348Z,12.60
2019-05-02T01:51:04.517Z,12.17
2019-05-02T01:53:34.452Z,13.30
2019-05-02T01:56:06.744Z,12.37
2019-05-02T01:58:38.419Z,12.30
2019-05-02T02:01:09.609Z,11.90
2019-05-02T02:03:45.548Z,12.80
2019-05-02T02:06:14.936Z,12.57
2019-05-02T02:08:46.235Z,13.20
2019-05-02T02:11:17.605Z,13.27
2019-05-02T02:13:49.007Z,12.50
2019-05-02T02:16:20.243Z,14.53
2019-05-02T02:19:03.504Z,16.30
2019-05-02T02:21:43.029Z,16.20
2019-05-02T02:24:21.068Z,13.53
2019-05-02T02:26:51.902Z,12.27
2019-05-02T02:29:23.343Z,13.70
2019-05-02T02:31:54.640Z,15.10
2019-05-02T02:34:29.252Z,23.10
2019-05-02T02:36:58.998Z,32.00
2019-05-02T02:39:30.346Z,33.53
2019-05-02T02:42:01.649Z,25.03
2019-05-02T02:44:50.645Z,20.97
2019-05-02T02:47:21.895Z,15.03
2019-05-02T02:49:56.092Z,14.50
2019-05-02T02:52:26.141Z,12.83
2019-05-02T02:54:57.708Z,12.47
2019-05-02T02:57:29.008Z,13.10
2019-05-02T03:00:08.116Z,14.40
2019-05-02T03:02:33.333Z,14.63
2019-05-02T03:05:05.450Z,14.67
2019-05-02T03:07:36.847Z,15.80
2019-05-02T03:10:08.641Z,13.77
2019-05-02T03:12:57.951Z,13.87
2019-05-02T03:15:31.710Z,14.23
2019-05-02T03:18:02.907Z,14.93
2019-05-02T03:20:39.845Z,13.10
2019-05-02T03:23:07.463Z,12.57
2019-05-02T03:25:50.732Z,14.07
2019-05-02T03:28:18.106Z,12.97
2019-05-02T03:30:44.843Z,12.80
2019-05-02T03:33:16.086Z,13.87
2019-05-02T03:35:49.627Z,12.43
2019-05-02T03:38:32.179Z,13.20
2019-05-02T03:40:57.620Z,12.80
2019-05-02T03:43:29.199Z,12.60
2019-05-02T03:46:01.167Z,14.37
2019-05-02T03:48:33.383Z,12.70
2019-05-02T03:51:11.991Z,12.93
2019-05-02T03:53:38.342Z,13.10
2019-05-02T03:56:11.393Z,12.90
2019-05-02T03:58:48.604Z,13.47
2019-05-02T04:01:16.595Z,12.17
2019-05-02T04:03:48.375Z,12.57
2019-05-02T04:06:21.025Z,14.30
2019-05-02T04:08:59.157Z,13.43
2019-05-02T04:11:38.037Z,13.67
2019-05-02T04:14:00.188Z,14.33
2019-05-02T04:16:31.493Z,13.63
2019-05-02T04:19:04.220Z,15.20
2019-05-02T04:21:35.826Z,14.73
2019-05-02T04:24:13.443Z,14.13
2019-05-02T04:26:52.684Z,14.77
2019-05-02T04:29:13.624Z,15.37
2019-05-02T04:31:45.289Z,13.80
2019-05-02T04:34:17.950Z,15.63
2019-05-02T04:36:59.425Z,13.97
2019-05-02T04:39:22.538Z,13.60
2019-05-02T04:41:54.333Z,13.50
2019-05-02T04:44:32.315Z,14.83
2019-05-02T04:47:09.409Z,14.93
2019-05-02T04:49:35.638Z,16.13
2019-05-02T04:52:10.481Z,15.40
2019-05-02T04:54:38.883Z,14.83
2019-05-02T04:57:10.551Z,14.20
2019-05-02T04:59:42.004Z,16.07
2019-05-02T05:02:13.237Z,19.30
2019-05-02T05:04:48.722Z,20.47
2019-05-02T05:07:18.028Z,18.63
2019-05-02T05:09:57.073Z,15.93
2019-05-02T05:12:22.235Z,13.90
2019-05-02T05:14:53.436Z,14.90
2019-05-02T05:17:25.078Z,15.03
2019-05-02T05:20:00.205Z,14.57
2019-05-02T05:22:30.696Z,16.27
2019-05-02T05:25:07.565Z,16.67
2019-05-02T05:27:38.894Z,20.23
2019-05-02T05:30:15.518Z,16.63
2019-05-02T05:32:43.611Z,17.20
2019-05-02T05:35:15.006Z,18.23
2019-05-02T05:37:49.128Z,17.53
2019-05-02T05:40:22.572Z,16.97
2019-05-02T05:42:52.446Z,17.00
2019-05-02T05:45:23.695Z,15.97
2019-05-02T05:47:57.577Z,17.57
2019-05-02T05:50:32.216Z,18.03
2019-05-02T05:53:01.298Z,19.10
2019-05-02T05:55:32.546Z,20.00
2019-05-02T05:58:12.283Z,19.10
2019-05-02T06:00:38.005Z,19.03
2019-05-02T06:03:13.888Z,20.50
2019-05-02T06:05:43.165Z,21.07
2019-05-02T06:08:18.350Z,19.90
2019-05-02T06:10:49.407Z,22.87
2019-05-02T06:13:24.012Z,22.67
2019-05-02T06:16:02.126Z,23.40
2019-05-02T06:18:28.536Z,20.50
2019-05-02T06:21:03.282Z,21.00
2019-05-02T06:23:36.464Z,24.00
2019-05-02T06:26:08.010Z,19.80
2019-05-02T06:28:41.679Z,20.87
2019-05-02T06:31:13.353Z,19.50
2019-05-02T06:33:44.868Z,20.10
2019-05-02T06:36:16.550Z,19.43
2019-05-02T06:38:52.244Z,18.70
2019-05-02T06:41:22.180Z,19.00
2019-05-02T06:43:54.645Z,17.33
2019-05-02T06:46:27.516Z,20.57
2019-05-02T06:48:59.279Z,18.27
2019-05-02T06:51:30.951Z,18.40
2019-05-02T06:54:02.514Z,16.90
2019-05-02T06:56:34.107Z,18.70
2019-05-02T06:59:05.596Z,17.53
2019-05-02T07:01:37.186Z,16.73
2019-05-02T07:04:08.648Z,18.17
2019-05-02T07:06:56.130Z,18.30
2019-05-02T07:09:13.894Z,17.67
2019-05-02T07:11:56.689Z,17.70
2019-05-02T07:14:23.365Z,17.30
2019-05-02T07:17:13.638Z,16.57
2019-05-02T07:19:50.530Z,17.43
2019-05-02T07:22:21.882Z,16.30
2019-05-02T07:24:53.102Z,16.20
2019-05-02T07:27:28.385Z,17.57
2019-05-02T07:29:58.019Z,16.50
2019-05-02T07:32:30.785Z,15.97
2019-05-02T07:35:02.297Z,16.90
2019-05-02T07:37:33.910Z,18.17
2019-05-02T07:40:05.843Z,16.50
2019-05-02T07:42:41.737Z,16.97
2019-05-02T07:45:10.808Z,16.33
2019-05-02T07:47:42.593Z,16.60
2019-05-02T07:50:14.577Z,16.10
2019-05-02T07:52:45.897Z,17.57
2019-05-02T07:55:17.118Z,16.60
2019-05-02T07:57:48.410Z,15.67
2019-05-02T08:00:19.824Z,17.07
2019-05-02T08:02:51.014Z,16.67
2019-05-02T08:05:23.874Z,17.37
2019-05-02T08:07:55.623Z,17.00
2019-05-02T08:10:27.162Z,16.43
2019-05-02T08:12:58.526Z,16.17
2019-05-02T08:15:30.053Z,14.40
2019-05-02T08:18:02.001Z,17.70
2019-05-02T08:20:33.870Z,16.77
2019-05-02T08:23:05.473Z,17.37
2019-05-02T08:25:36.689Z,16.70
2019-05-02T08:28:19.678Z,15.27
2019-05-02T08:30:54.487Z,16.60
2019-05-02T08:33:29.405Z,17.50
2019-05-02T08:35:58.812Z,15.43
2019-05-02T08:38:30.047Z,17.47
2019-05-02T08:41:01.519Z,16.27
2019-05-02T08:43:33.291Z,17.97
2019-05-02T08:46:04.834Z,13.70
2019-05-02T08:48:41.894Z,16.60
2019-05-02T08:51:10.523Z,16.87
2019-05-02T08:53:42.068Z,17.10
2019-05-02T08:56:16.015Z,15.93
2019-05-02T08:58:49.874Z,16.20
2019-05-02T09:01:20.379Z,16.67
2019-05-02T09:03:56.667Z,15.20
2019-05-02T09:06:24.792Z,14.77
2019-05-02T09:08:56.102Z,15.60
2019-05-02T09:11:27.440Z,16.33
2019-05-02T09:13:58.792Z,15.60
2019-05-02T09:16:30.957Z,16.73
2019-05-02T09:19:03.542Z,15.93
2019-05-02T09:21:36.040Z,17.40
2019-05-02T09:24:08.343Z,16.13
2019-05-02T09:26:42.574Z,14.80
2019-05-02T09:29:14.127Z,15.97
2019-05-02T09:31:46.162Z,13.03
2019-05-02T09:34:22.880Z,14.67
2019-05-02T09:36:52.989Z,14.50
2019-05-02T09:39:27.363Z,12.20
2019-05-02T09:41:57.097Z,13.93
2019-05-02T09:44:28.370Z,13.00
2019-05-02T09:46:59.721Z,14.80
2019-05-02T09:49:32.413Z,14.63
2019-05-02T09:52:04.364Z,13.93
2019-05-02T09:54:36.997Z,12.40
2019-05-02T09:57:09.617Z,13.50
2019-05-02T09:59:43.380Z,13.03
2019-05-02T10:02:14.877Z,12.27
2019-05-02T10:04:46.707Z,11.33
2019-05-02T10:07:18.022Z,12.00
2019-05-02T10:09:51.779Z,12.40
2019-05-02T10:12:22.954Z,12.20
2019-05-02T10:14:54.407Z,11.23
2019-05-02T10:17:26.246Z,11.00
2019-05-02T10:19:57.655Z,11.70
2019-05-02T10:22:32.281Z,10.50
2019-05-02T10:25:02.673Z,10.40
2019-05-02T10:27:33.884Z,10.30
2019-05-02T10:30:11.887Z,9.73
2019-05-02T10:32:39.603Z,12.00
2019-05-02T10:35:13.091Z,11.00
2019-05-02T10:37:44.346Z,10.03
2019-05-02T10:40:17.226Z,10.57
2019-05-02T10:42:49.338Z,10.37
2019-05-02T10:45:22.538Z,11.20
2019-05-02T10:47:54.432Z,13.10
2019-05-02T10:50:33.487Z,10.80
2019-05-02T10:53:11.024Z,11.20
2019-05-02T10:55:37.954Z,10.33
2019-05-02T10:58:09.456Z,12.70
2019-05-02T11:00:44.862Z,11.43
2019-05-02T11:03:38.153Z,11.73
2019-05-02T11:06:07.875Z,10.97
2019-05-02T11:08:44.027Z,11.20
2019-05-02T11:11:12.752Z,12.50
2019-05-02T11:14:05.739Z,12.57
2019-05-02T11:16:45.099Z,12.73
2019-05-02T11:19:32.315Z,11.30
2019-05-02T11:22:03.651Z,11.87
2019-05-02T11:24:34.844Z,13.03
2019-05-02T11:27:08.184Z,11.63
2019-05-02T11:29:39.082Z,13.17
2019-05-02T11:32:10.401Z,10.80
2019-05-02T11:34:42.174Z,11.50
2019-05-02T11:37:15.198Z,11.30
2019-05-02T11:39:52.022Z,11.60
2019-05-02T11:42:23.298Z,12.67
2019-05-02T11:44:52.964Z,11.10
2019-05-02T11:47:26.547Z,11.27
2019-05-02T11:49:57.241Z,12.73
2019-05-02T11:52:32.956Z,12.03
2019-05-02T11:55:02.148Z,10.67
2019-05-02T11:57:34.026Z,11.67
2019-05-02T12:00:08.844Z,9.10
2019-05-02T12:02:59.069Z,10.73
2019-05-02T12:05:35.831Z,10.30
2019-05-02T12:08:09.314Z,8.50
2019-05-02T12:10:42.220Z,10.17
2019-05-02T12:13:16.049Z,8.90
2019-05-02T12:15:46.282Z,10.13
2019-05-02T12:18:24.322Z,9.90
2019-05-02T12:20:55.648Z,9.90
2019-05-02T12:23:26.868Z,10.03
2019-05-02T12:26:02.841Z,10.17
2019-05-02T12:28:36.575Z,8.37
2019-05-02T12:31:16.622Z,9.60
2019-05-02T12:33:45.778Z,8.40
2019-05-02T12:36:16.989Z,7.23
2019-05-02T12:38:48.553Z,9.70
2019-05-02T12:41:22.996Z,7.63
2019-05-02T12:43:53.400Z,7.60
2019-05-02T12:46:25.098Z,8.20
2019-05-02T12:48:56.908Z,7.30
2019-05-02T12:51:28.104Z,8.10
2019-05-02T12:53:59.401Z,9.30
2019-05-02T12:56:32.454Z,7.70
2019-05-02T12:59:03.987Z,8.17
2019-05-02T13:01:35.239Z,8.47
2019-05-02T13:04:08.604Z,9.17
2019-05-02T13:06:41.997Z,8.33
2019-05-02T13:09:13.247Z,7.67
2019-05-02T13:12:07.342Z,9.43
2019-05-02T13:14:38.643Z,6.60
2019-05-02T13:17:11.999Z,7.50
2019-05-02T13:19:55.516Z,6.00
2019-05-02T13:22:47.850Z,7.27
2019-05-02T13:25:22.506Z,7.47
2019-05-02T13:27:54.082Z,6.27
2019-05-02T13:30:42.519Z,4.80
2019-05-02T13:33:07.224Z,6.50
2019-05-02T13:35:42.651Z,6.87
2019-05-02T13:38:15.561Z,6.73
2019-05-02T13:40:48.519Z,6.17
2019-05-02T13:43:24.024Z,6.23
2019-05-02T13:46:25.350Z,5.30
2019-05-02T13:48:56.536Z,6.90
2019-05-02T13:51:27.810Z,6.60
2019-05-02T13:54:02.357Z,5.87
2019-05-02T13:56:52.595Z,6.47
2019-05-02T13:59:23.688Z,6.40
2019-05-02T14:01:55.497Z,6.20
2019-05-02T14:04:27.086Z,6.27
2019-05-02T14:06:59.157Z,7.10
2019-05-02T14:09:52.673Z,6.20
2019-05-02T14:12:44.496Z,6.07
2019-05-02T14:15:22.151Z,7.53
2019-05-02T14:17:53.342Z,7.10
2019-05-02T14:20:24.766Z,7.97
2019-05-02T14:22:56.061Z,8.50
2019-05-02T14:25:27.273Z,8.77
2019-05-02T14:27:58.597Z,6.70
2019-05-02T14:30:38.738Z,7.70
2019-05-02T14:33:06.322Z,7.30
2019-05-02T14:35:37.761Z,6.60
2019-05-02T14:38:13.388Z,5.83
2019-05-02T14:41:03.040Z,7.50
2019-05-02T14:43:58.076Z,6.70
2019-05-02T14:46:35.381Z,5.23
2019-05-02T14:49:08.718Z,5.73
2019-05-02T14:51:41.778Z,6.20
2019-05-02T14:54:14.574Z,6.90
2019-05-02T14:57:17.099Z,5.80
2019-05-02T14:59:59.297Z,5.40
2019-05-02T15:02:49.017Z,6.00
2019-05-02T15:05:19.417Z,6.70
2019-05-02T15:07:51.867Z,6.43
2019-05-02T15:10:22.991Z,7.30
2019-05-02T15:12:59.493Z,5.70
2019-05-02T15:15:35.286Z,6.63
2019-05-02T15:18:07.859Z,6.60
2019-05-02T15:20:39.485Z,6.80
2019-05-02T15:23:14.357Z,5.73
2019-05-02T15:25:47.183Z,5.60
2019-05-02T15:28:22.915Z,7.97
2019-05-02T15:31:11.841Z,7.13
2019-05-02T15:33:56.322Z,5.87
2019-05-02T15:36:26.810Z,6.10
2019-05-02T15:41:32.691Z,5.70
2019-05-02T15:44:04.010Z,6.57
2019-05-02T15:46:35.342Z,5.53
2019-05-02T15:49:07.193Z,5.63
2019-05-02T15:51:43.709Z,5.20
2019-05-02T15:54:18.827Z,5.37
2019-05-02T15:57:00.709Z,5.10
2019-05-02T15:59:37.601Z,4.20
2019-05-02T16:02:17.480Z,4.97
2019-05-02T16:04:48.193Z,5.97
2019-05-02T16:07:19.436Z,5.43
2019-05-02T16:09:56.309Z,5.67
2019-05-02T16:12:27.131Z,6.73
2019-05-02T16:14:58.807Z,6.30
2019-05-02T16:17:30.047Z,5.07
2019-05-02T16:20:10.760Z,5.63
2019-05-02T16:22:46.266Z,4.93
2019-05-02T16:25:15.455Z,5.13
2019-05-02T16:27:47.344Z,5.80
2019-05-02T16:30:22.410Z,5.00
2019-05-02T16:32:58.748Z,4.47
2019-05-02T16:35:31.675Z,7.07
2019-05-02T16:38:03.538Z,5.20
2019-05-02T16:40:35.138Z,5.47
2019-05-02T16:43:06.376Z,5.17
2019-05-02T16:45:37.759Z,5.23
2019-05-02T16:48:09.087Z,4.87
2019-05-02T16:50:42.047Z,5.00
2019-05-02T16:53:17.138Z,6.70
2019-05-02T16:55:46.963Z,4.00
2019-05-02T16:58:19.485Z,7.03
2019-05-02T17:00:52.664Z,7.10
2019-05-02T17:03:26.969Z,5.17
2019-05-02T17:05:58.232Z,6.93
2019-05-02T17:08:58.675Z,7.13
2019-05-02T17:11:42.061Z,4.90
2019-05-02T17:14:13.549Z,9.30
2019-05-02T17:16:47.125Z,6.60
2019-05-02T17:19:18.184Z,5.83
2019-05-02T17:21:55.405Z,6.23
2019-05-02T17:24:26.186Z,5.27
2019-05-02T17:26:55.887Z,5.67
2019-05-02T17:29:27.204Z,4.17
2019-05-02T17:32:02.198Z,7.07
2019-05-02T17:34:35.050Z,4.93
2019-05-02T17:37:11.490Z,6.37
2019-05-02T17:39:42.699Z,21.90
2019-05-02T17:42:17.087Z,15.03
2019-05-02T17:44:47.425Z,7.67
2019-05-02T17:47:18.947Z,5.23
2019-05-02T17:49:52.863Z,4.83
2019-05-02T17:52:32.914Z,6.43
2019-05-02T17:55:04.806Z,4.97
2019-05-02T17:57:41.883Z,5.20
2019-05-02T18:00:18.992Z,5.60
2019-05-02T18:02:51.881Z,5.90
2019-05-02T18:05:26.535Z,5.10
2019-05-02T18:07:56.855Z,4.50
2019-05-02T18:10:29.011Z,5.90
2019-05-02T18:13:02.527Z,5.07
2019-05-02T18:15:34.785Z,5.13
2019-05-02T18:18:08.048Z,5.50
2019-05-02T18:20:42.897Z,5.63
2019-05-02T18:23:12.820Z,6.23
2019-05-02T18:25:44.103Z,5.60
2019-05-02T18:28:22.258Z,5.37
2019-05-02T18:30:50.147Z,5.63
2019-05-02T18:33:23.480Z,4.57
2019-05-02T18:35:54.773Z,4.90
2019-05-02T18:38:26.428Z,5.07
2019-05-02T18:41:00.241Z,4.93
2019-05-02T18:43:31.513Z,5.30
2019-05-02T18:46:07.516Z,4.27
2019-05-02T18:48:36.588Z,5.63
2019-05-02T18:51:09.057Z,5.50
2019-05-02T18:53:42.246Z,4.63
2019-05-02T18:56:13.419Z,5.40
2019-05-02T18:58:45.367Z,4.80
2019-05-02T19:01:18.441Z,4.23
2019-05-02T19:03:52.568Z,4.87
2019-05-02T19:06:23.037Z,4.60
2019-05-02T19:08:56.888Z,4.80
2019-05-02T19:11:33.673Z,5.47
2019-05-02T19:14:02.701Z,4.87
2019-05-02T19:16:34.044Z,5.23
2019-05-02T19:19:05.660Z,5.80
2019-05-02T19:21:39.463Z,6.63
2019-05-02T19:24:10.216Z,9.53
2019-05-02T19:26:49.007Z,6.00
2019-05-02T19:29:31.874Z,7.67
2019-05-02T19:32:05.287Z,5.37
2019-05-02T19:34:36.633Z,4.43
2019-05-02T19:37:07.983Z,5.80
2019-05-02T19:39:47.201Z,5.93
2019-05-02T19:42:17.143Z,5.60
2019-05-02T19:44:46.015Z,5.23
2019-05-02T19:47:17.703Z,5.00
2019-05-02T19:49:52.412Z,4.63
2019-05-02T19:52:22.275Z,4.70
2019-05-02T19:54:53.602Z,5.67
2019-05-02T19:57:26.383Z,5.00
2019-05-02T20:00:02.747Z,5.20
2019-05-02T20:02:37.343Z,6.23
2019-05-02T20:05:07.215Z,6.17
2019-05-02T20:07:38.617Z,6.40
2019-05-02T20:10:12.291Z,9.07
2019-05-02T20:12:48.421Z,6.10
2019-05-02T20:15:25.458Z,6.77
2019-05-02T20:17:55.330Z,6.10
2019-05-02T20:20:54.946Z,6.40
2019-05-02T20:23:31.671Z,6.73
2019-05-02T20:25:59.507Z,5.33
2019-05-02T20:28:31.762Z,7.87
2019-05-02T20:31:03.268Z,6.30
2019-05-02T20:33:34.549Z,7.10
2019-05-02T20:36:05.863Z,7.10
2019-05-02T20:38:37.617Z,6.90
2019-05-02T20:41:09.010Z,6.97
2019-05-02T20:43:42.925Z,6.63
2019-05-02T20:46:13.652Z,6.10
2019-05-02T20:48:45.085Z,6.40
2019-05-02T20:51:16.394Z,6.53
2019-05-02T20:53:47.618Z,5.53
2019-05-02T20:56:18.834Z,5.97
2019-05-02T20:58:50.091Z,7.50
2019-05-02T21:01:21.742Z,6.07
2019-05-02T21:03:53.153Z,6.10
2019-05-02T21:06:47.487Z,5.47
2019-05-02T21:09:39.189Z,5.80
2019-05-02T21:12:12.472Z,5.90
2019-05-02T21:14:43.382Z,6.00
2019-05-02T21:17:14.843Z,6.73
2019-05-02T21:19:46.354Z,6.33
2019-05-02T21:22:22.227Z,4.93
2019-05-02T21:24:53.783Z,5.80
2019-05-02T21:27:25.124Z,6.47
2019-05-02T21:29:56.341Z,6.13
2019-05-02T21:32:27.552Z,6.10
2019-05-02T21:34:58.772Z,4.87
2019-05-02T21:37:31.828Z,5.40
2019-05-02T21:40:02.985Z,5.77
2019-05-02T21:42:34.361Z,5.83
2019-05-02T21:45:06.095Z,6.93
2019-05-02T21:47:37.435Z,6.47
2019-05-02T21:50:19.017Z,5.40
2019-05-02T21:53:10.349Z,5.73
2019-05-02T21:55:52.090Z,6.20
2019-05-02T21:58:25.604Z,6.03
2019-05-02T22:01:02.412Z,6.97
2019-05-02T22:03:33.908Z,5.97
2019-05-02T22:06:06.042Z,6.13
2019-05-02T22:08:37.512Z,6.73
2019-05-02T22:11:08.882Z,6.20
2019-05-02T22:13:42.167Z,7.63
2019-05-02T22:16:13.422Z,5.30
2019-05-02T22:18:44.775Z,6.83
2019-05-02T22:21:16.048Z,5.73
2019-05-02T22:23:47.252Z,5.77
2019-05-02T22:26:18.647Z,5.73
2019-05-02T22:28:49.873Z,6.10
2019-05-02T22:31:22.687Z,5.67
2019-05-02T22:33:54.121Z,6.33
2019-05-02T22:36:26.074Z,7.17
2019-05-02T22:39:31.735Z,5.40
2019-05-02T22:42:04.617Z,7.23
2019-05-02T22:44:36.454Z,5.67
2019-05-02T22:47:07.686Z,5.73
2019-05-02T22:49:39.104Z,6.60
2019-05-02T22:52:12.155Z,5.97
2019-05-02T22:54:43.559Z,6.30
2019-05-02T22:57:15.300Z,5.60
2019-05-02T22:59:46.713Z,5.93
2019-05-02T23:02:18.290Z,6.17
2019-05-02T23:04:49.596Z,7.73
2019-05-02T23:07:22.176Z,6.50
2019-05-02T23:09:53.674Z,7.20
2019-05-02T23:12:25.163Z,6.50
2019-05-02T23:14:56.640Z,6.13
2019-05-02T23:17:27.852Z,6.80
2019-05-02T23:19:59.538Z,6.37
2019-05-02T23:22:32.330Z,5.93
2019-05-02T23:25:14.316Z,6.67
2019-05-02T23:27:52.327Z,6.33
2019-05-02T23:30:25.264Z,6.03
2019-05-02T23:32:56.968Z,6.20
2019-05-02T23:35:28.321Z,6.47
2019-05-02T23:38:01.997Z,6.57
2019-05-02T23:40:33.381Z,6.07
2019-05-02T23:43:04.702Z,6.60
2019-05-02T23:45:36.081Z,7.50
2019-05-02T23:48:07.362Z,7.30
2019-05-02T23:50:39.242Z,8.27
2019-05-02T23:53:12.713Z,6.83
2019-05-02T23:55:43.679Z,6.40
2019-05-02T23:58:14.851Z,6.63
